FGHFD LFNN-LFCK
Flight info
| Callsign | FGHFD |
|---|---|
| Flight time | 0h 34m |
| Altitude | 4000 |
| Route | LFMK |
| Aircraft | PA24/L-SDGRY/S |
Departure
| Time | 2026-04-15 19:12 |
|---|---|
| Airport | Narbonne Airfield (LFNN) |
Arrival
| Time | 2026-04-15 19:46 |
|---|---|
| Airport | Castres Mazamet Airport (LFCK) |
| Time | Latitude | Longitude | Altitude | Speed | Heading |
|---|---|---|---|---|---|
| 2026-04-15 18:54 | 43.19360 | 3.04817 | 7 ft | 0 kts | 355° |
| 2026-04-15 18:56 | 43.19363 | 3.04817 | 7 ft | 0 kts | 355° |
| 2026-04-15 19:03 | 43.19365 | 3.04816 | 7 ft | 3 kts | 355° |
| 2026-04-15 19:04 | 43.19379 | 3.04853 | 10 ft | 6 kts | 110° |
| 2026-04-15 19:04 | 43.19364 | 3.04938 | 9 ft | 9 kts | 107° |
| 2026-04-15 19:04 | 43.19350 | 3.05002 | 9 ft | 8 kts | 107° |
| 2026-04-15 19:04 | 43.19333 | 3.05080 | 8 ft | 9 kts | 101° |
| 2026-04-15 19:05 | 43.19319 | 3.05163 | 9 ft | 10 kts | 105° |
| 2026-04-15 19:05 | 43.19305 | 3.05242 | 8 ft | 8 kts | 102° |
| 2026-04-15 19:05 | 43.19293 | 3.05317 | 10 ft | 7 kts | 102° |
| 2026-04-15 19:05 | 43.19280 | 3.05386 | 11 ft | 9 kts | 102° |
| 2026-04-15 19:06 | 43.19261 | 3.05468 | 11 ft | 9 kts | 113° |
| 2026-04-15 19:06 | 43.19251 | 3.05522 | 11 ft | 3 kts | 76° |
| 2026-04-15 19:06 | 43.19262 | 3.05531 | 11 ft | 0 kts | 355° |
| 2026-04-15 19:09 | 43.19271 | 3.05530 | 12 ft | 6 kts | 0° |
| 2026-04-15 19:09 | 43.19299 | 3.05540 | 11 ft | 2 kts | 17° |
| 2026-04-15 19:09 | 43.19327 | 3.05551 | 12 ft | 5 kts | 15° |
| 2026-04-15 19:10 | 43.19353 | 3.05554 | 12 ft | 3 kts | 327° |
| 2026-04-15 19:10 | 43.19359 | 3.05517 | 12 ft | 0 kts | 283° |
| 2026-04-15 19:11 | 43.19391 | 3.05325 | 12 ft | 52 kts | 286° |
| 2026-04-15 19:11 | 43.19483 | 3.04774 | 137 ft | 61 kts | 278° |
| 2026-04-15 19:11 | 43.19451 | 3.04196 | 298 ft | 67 kts | 227° |
| 2026-04-15 19:11 | 43.18982 | 3.04345 | 447 ft | 95 kts | 131° |
| 2026-04-15 19:12 | 43.18762 | 3.05298 | 654 ft | 112 kts | 99° |
| 2026-04-15 19:12 | 43.18424 | 3.06201 | 898 ft | 113 kts | 149° |
| 2026-04-15 19:12 | 43.17684 | 3.06073 | 1134 ft | 110 kts | 239° |
| 2026-04-15 19:12 | 43.17303 | 3.05303 | 1529 ft | 87 kts | 238° |
| 2026-04-15 19:13 | 43.16834 | 3.04648 | 1668 ft | 103 kts | 239° |
| 2026-04-15 19:13 | 43.16332 | 3.03919 | 1856 ft | 109 kts | 243° |
| 2026-04-15 19:13 | 43.15867 | 3.03082 | 2024 ft | 112 kts | 248° |
| 2026-04-15 19:13 | 43.15416 | 3.02166 | 2164 ft | 114 kts | 250° |
| 2026-04-15 19:14 | 43.15003 | 3.01192 | 2274 ft | 118 kts | 257° |
| 2026-04-15 19:14 | 43.14815 | 3.00139 | 2455 ft | 109 kts | 274° |
| 2026-04-15 19:14 | 43.14724 | 2.99075 | 2513 ft | 115 kts | 276° |
| 2026-04-15 19:14 | 43.14683 | 2.97975 | 2554 ft | 118 kts | 281° |
| 2026-04-15 19:15 | 43.14737 | 2.96860 | 2556 ft | 116 kts | 286° |
| 2026-04-15 19:15 | 43.14824 | 2.95772 | 2574 ft | 112 kts | 285° |
| 2026-04-15 19:15 | 43.14892 | 2.94724 | 2553 ft | 109 kts | 284° |
| 2026-04-15 19:15 | 43.14969 | 2.93697 | 2517 ft | 109 kts | 285° |
| 2026-04-15 19:16 | 43.15081 | 2.92669 | 2499 ft | 108 kts | 288° |
| 2026-04-15 19:16 | 43.15235 | 2.91656 | 2497 ft | 109 kts | 290° |
| 2026-04-15 19:16 | 43.15418 | 2.90656 | 2486 ft | 107 kts | 291° |
| 2026-04-15 19:16 | 43.15599 | 2.89687 | 2472 ft | 103 kts | 292° |
| 2026-04-15 19:17 | 43.15795 | 2.88761 | 2482 ft | 101 kts | 294° |
| 2026-04-15 19:17 | 43.15991 | 2.87837 | 2466 ft | 100 kts | 294° |
| 2026-04-15 19:17 | 43.16205 | 2.86938 | 2468 ft | 100 kts | 296° |
| 2026-04-15 19:17 | 43.16413 | 2.86025 | 2441 ft | 102 kts | 288° |
| 2026-04-15 19:18 | 43.16549 | 2.85069 | 2458 ft | 102 kts | 289° |
| 2026-04-15 19:18 | 43.16697 | 2.84131 | 2455 ft | 102 kts | 292° |
| 2026-04-15 19:18 | 43.17033 | 2.82281 | 2447 ft | 99 kts | 292° |
| 2026-04-15 19:19 | 43.17206 | 2.81358 | 2442 ft | 100 kts | 292° |
| 2026-04-15 19:19 | 43.17376 | 2.80436 | 2445 ft | 99 kts | 292° |
| 2026-04-15 19:19 | 43.17524 | 2.79516 | 2453 ft | 98 kts | 289° |
| 2026-04-15 19:19 | 43.17650 | 2.78596 | 2452 ft | 98 kts | 289° |
| 2026-04-15 19:20 | 43.17770 | 2.77679 | 2459 ft | 98 kts | 287° |
| 2026-04-15 19:20 | 43.17825 | 2.76753 | 2452 ft | 98 kts | 282° |
| 2026-04-15 19:20 | 43.17836 | 2.75824 | 2452 ft | 97 kts | 281° |
| 2026-04-15 19:20 | 43.17844 | 2.74902 | 2454 ft | 96 kts | 281° |
| 2026-04-15 19:21 | 43.17851 | 2.73999 | 2469 ft | 95 kts | 281° |
| 2026-04-15 19:21 | 43.17851 | 2.73099 | 2473 ft | 95 kts | 281° |
| 2026-04-15 19:21 | 43.17850 | 2.72201 | 2474 ft | 96 kts | 281° |
| 2026-04-15 19:21 | 43.17844 | 2.71273 | 2476 ft | 99 kts | 281° |
| 2026-04-15 19:22 | 43.17837 | 2.70315 | 2481 ft | 102 kts | 281° |
| 2026-04-15 19:22 | 43.17830 | 2.69335 | 2484 ft | 104 kts | 281° |
| 2026-04-15 19:22 | 43.17823 | 2.68340 | 2491 ft | 105 kts | 281° |
| 2026-04-15 19:22 | 43.17815 | 2.67333 | 2490 ft | 106 kts | 281° |
| 2026-04-15 19:23 | 43.17823 | 2.66338 | 2478 ft | 102 kts | 280° |
| 2026-04-15 19:23 | 43.17858 | 2.65363 | 2473 ft | 103 kts | 280° |
| 2026-04-15 19:23 | 43.17898 | 2.64383 | 2477 ft | 104 kts | 280° |
| 2026-04-15 19:23 | 43.17938 | 2.63390 | 2483 ft | 104 kts | 280° |
| 2026-04-15 19:24 | 43.17974 | 2.62419 | 2542 ft | 100 kts | 280° |
| 2026-04-15 19:24 | 43.18001 | 2.61474 | 2610 ft | 97 kts | 280° |
| 2026-04-15 19:24 | 43.18020 | 2.60557 | 2651 ft | 97 kts | 280° |
| 2026-04-15 19:24 | 43.18034 | 2.59650 | 2720 ft | 92 kts | 280° |
| 2026-04-15 19:25 | 43.18042 | 2.58770 | 2742 ft | 93 kts | 280° |
| 2026-04-15 19:25 | 43.18052 | 2.57895 | 2794 ft | 90 kts | 280° |
| 2026-04-15 19:25 | 43.18061 | 2.57035 | 2808 ft | 92 kts | 280° |
| 2026-04-15 19:25 | 43.18069 | 2.56158 | 2861 ft | 91 kts | 280° |
| 2026-04-15 19:26 | 43.18069 | 2.55283 | 2894 ft | 92 kts | 280° |
| 2026-04-15 19:26 | 43.18073 | 2.54407 | 2931 ft | 92 kts | 280° |
| 2026-04-15 19:26 | 43.18083 | 2.53515 | 2955 ft | 95 kts | 280° |
| 2026-04-15 19:26 | 43.18134 | 2.52642 | 3036 ft | 89 kts | 285° |
| 2026-04-15 19:27 | 43.18219 | 2.51778 | 3040 ft | 93 kts | 285° |
| 2026-04-15 19:27 | 43.18333 | 2.50905 | 3058 ft | 95 kts | 288° |
| 2026-04-15 19:27 | 43.18469 | 2.50018 | 3053 ft | 97 kts | 289° |
| 2026-04-15 19:27 | 43.18619 | 2.49104 | 3052 ft | 98 kts | 291° |
| 2026-04-15 19:28 | 43.18807 | 2.48200 | 3045 ft | 98 kts | 292° |
| 2026-04-15 19:28 | 43.18999 | 2.47307 | 3044 ft | 97 kts | 292° |
| 2026-04-15 19:28 | 43.19182 | 2.46447 | 3041 ft | 92 kts | 292° |
| 2026-04-15 19:28 | 43.19341 | 2.45613 | 3044 ft | 90 kts | 289° |
| 2026-04-15 19:29 | 43.19468 | 2.44777 | 3044 ft | 91 kts | 288° |
| 2026-04-15 19:29 | 43.19594 | 2.43932 | 3045 ft | 90 kts | 288° |
| 2026-04-15 19:29 | 43.19719 | 2.43091 | 3045 ft | 89 kts | 288° |
| 2026-04-15 19:29 | 43.19835 | 2.42258 | 3043 ft | 89 kts | 288° |
| 2026-04-15 19:30 | 43.19934 | 2.41425 | 3037 ft | 89 kts | 283° |
| 2026-04-15 19:30 | 43.19929 | 2.40563 | 3041 ft | 92 kts | 276° |
| 2026-04-15 19:30 | 43.19883 | 2.39692 | 3039 ft | 91 kts | 275° |
| 2026-04-15 19:30 | 43.19829 | 2.38816 | 3038 ft | 93 kts | 275° |
| 2026-04-15 19:31 | 43.19774 | 2.37940 | 3040 ft | 94 kts | 275° |
| 2026-04-15 19:31 | 43.19716 | 2.37050 | 3045 ft | 93 kts | 275° |
| 2026-04-15 19:31 | 43.19659 | 2.36169 | 3047 ft | 92 kts | 275° |
| 2026-04-15 19:31 | 43.19605 | 2.35295 | 3053 ft | 93 kts | 275° |
| 2026-04-15 19:32 | 43.19553 | 2.34408 | 3062 ft | 96 kts | 275° |
| 2026-04-15 19:32 | 43.19504 | 2.33475 | 3057 ft | 99 kts | 275° |
| 2026-04-15 19:32 | 43.19460 | 2.32533 | 3053 ft | 98 kts | 276° |
| 2026-04-15 19:32 | 43.19671 | 2.31680 | 3053 ft | 95 kts | 315° |
| 2026-04-15 19:33 | 43.20267 | 2.31340 | 3045 ft | 97 kts | 352° |
| 2026-04-15 19:33 | 43.20953 | 2.31400 | 3041 ft | 100 kts | 356° |
| 2026-04-15 19:33 | 43.21645 | 2.31483 | 3042 ft | 100 kts | 357° |
| 2026-04-15 19:33 | 43.22326 | 2.31566 | 3044 ft | 100 kts | 358° |
| 2026-04-15 19:34 | 43.23017 | 2.31653 | 3044 ft | 100 kts | 358° |
| 2026-04-15 19:34 | 43.23702 | 2.31752 | 3044 ft | 98 kts | 358° |
| 2026-04-15 19:34 | 43.24375 | 2.31849 | 3040 ft | 96 kts | 357° |
| 2026-04-15 19:34 | 43.25037 | 2.31931 | 3038 ft | 95 kts | 357° |
| 2026-04-15 19:35 | 43.25693 | 2.32010 | 3044 ft | 95 kts | 357° |
| 2026-04-15 19:35 | 43.26355 | 2.32102 | 3045 ft | 96 kts | 357° |
| 2026-04-15 19:35 | 43.27011 | 2.32198 | 3040 ft | 95 kts | 357° |
| 2026-04-15 19:35 | 43.27673 | 2.32285 | 3053 ft | 96 kts | 357° |
| 2026-04-15 19:36 | 43.28343 | 2.32373 | 3056 ft | 98 kts | 357° |
| 2026-04-15 19:36 | 43.29021 | 2.32474 | 3053 ft | 98 kts | 357° |
| 2026-04-15 19:36 | 43.29702 | 2.32571 | 3050 ft | 99 kts | 357° |
| 2026-04-15 19:36 | 43.30389 | 2.32643 | 3047 ft | 98 kts | 357° |
| 2026-04-15 19:37 | 43.31070 | 2.32706 | 3042 ft | 97 kts | 357° |
| 2026-04-15 19:37 | 43.31745 | 2.32765 | 3034 ft | 97 kts | 357° |
| 2026-04-15 19:37 | 43.32420 | 2.32823 | 2993 ft | 98 kts | 357° |
| 2026-04-15 19:37 | 43.33102 | 2.32874 | 2986 ft | 96 kts | 357° |
| 2026-04-15 19:38 | 43.33769 | 2.32922 | 2993 ft | 98 kts | 357° |
| 2026-04-15 19:38 | 43.34459 | 2.32979 | 2990 ft | 99 kts | 357° |
| 2026-04-15 19:38 | 43.35149 | 2.33064 | 2988 ft | 101 kts | 357° |
| 2026-04-15 19:38 | 43.35849 | 2.33154 | 2986 ft | 100 kts | 357° |
| 2026-04-15 19:39 | 43.36537 | 2.33246 | 2977 ft | 99 kts | 356° |
| 2026-04-15 19:39 | 43.37226 | 2.33342 | 2983 ft | 99 kts | 356° |
| 2026-04-15 19:39 | 43.37905 | 2.33433 | 2983 ft | 96 kts | 356° |
| 2026-04-15 19:39 | 43.38572 | 2.33526 | 2979 ft | 96 kts | 356° |
| 2026-04-15 19:40 | 43.39228 | 2.33602 | 3001 ft | 94 kts | 356° |
| 2026-04-15 19:40 | 43.39851 | 2.33635 | 3145 ft | 87 kts | 356° |
| 2026-04-15 19:40 | 43.40451 | 2.33631 | 3261 ft | 87 kts | 356° |
| 2026-04-15 19:40 | 43.41068 | 2.33676 | 3379 ft | 89 kts | 356° |
| 2026-04-15 19:41 | 43.41693 | 2.33754 | 3489 ft | 91 kts | 356° |
| 2026-04-15 19:41 | 43.42333 | 2.33824 | 3573 ft | 95 kts | 356° |
| 2026-04-15 19:41 | 43.42989 | 2.33871 | 3666 ft | 94 kts | 356° |
| 2026-04-15 19:41 | 43.43646 | 2.33893 | 3758 ft | 99 kts | 354° |
| 2026-04-15 19:42 | 43.44368 | 2.33861 | 3815 ft | 105 kts | 352° |
| 2026-04-15 19:42 | 43.45106 | 2.33792 | 3810 ft | 109 kts | 351° |
| 2026-04-15 19:42 | 43.45884 | 2.33686 | 3690 ft | 115 kts | 350° |
| 2026-04-15 19:42 | 43.46673 | 2.33563 | 3582 ft | 117 kts | 348° |
| 2026-04-15 19:43 | 43.47510 | 2.33417 | 3379 ft | 124 kts | 348° |
| 2026-04-15 19:43 | 43.48367 | 2.33290 | 3248 ft | 114 kts | 348° |
| 2026-04-15 19:43 | 43.49152 | 2.33137 | 3069 ft | 119 kts | 345° |
| 2026-04-15 19:43 | 43.49950 | 2.32919 | 2896 ft | 115 kts | 346° |
| 2026-04-15 19:44 | 43.50758 | 2.32756 | 2664 ft | 117 kts | 348° |
| 2026-04-15 19:44 | 43.51495 | 2.32607 | 2391 ft | 101 kts | 347° |
| 2026-04-15 19:44 | 43.52171 | 2.32429 | 1990 ft | 103 kts | 340° |
| 2026-04-15 19:44 | 43.52832 | 2.32047 | 1648 ft | 97 kts | 322° |
| 2026-04-15 19:45 | 43.53292 | 2.31496 | 1477 ft | 79 kts | 317° |
| 2026-04-15 19:45 | 43.53692 | 2.31043 | 1335 ft | 70 kts | 320° |
| 2026-04-15 19:45 | 43.54071 | 2.30633 | 1177 ft | 69 kts | 319° |
| 2026-04-15 19:45 | 43.54429 | 2.30242 | 1025 ft | 63 kts | 318° |
| 2026-04-15 19:46 | 43.54763 | 2.29867 | 903 ft | 61 kts | 316° |
| 2026-04-15 19:46 | 43.55099 | 2.29493 | 816 ft | 64 kts | 317° |
| 2026-04-15 19:46 | 43.55436 | 2.29125 | 768 ft | 56 kts | 318° |
| 2026-04-15 19:46 | 43.55676 | 2.28860 | 750 ft | 29 kts | 323° |
| 2026-04-15 19:47 | 43.55758 | 2.28772 | 747 ft | 8 kts | 323° |
| 2026-04-15 19:47 | 43.55792 | 2.28741 | 745 ft | 0 kts | 297° |
| 2026-04-15 19:47 | 43.55785 | 2.28730 | 746 ft | 4 kts | 164° |
| 2026-04-15 19:47 | 43.55739 | 2.28788 | 748 ft | 14 kts | 136° |
| 2026-04-15 19:48 | 43.55642 | 2.28900 | 751 ft | 21 kts | 140° |
| 2026-04-15 19:48 | 43.55549 | 2.28999 | 758 ft | 13 kts | 141° |
| 2026-04-15 19:48 | 43.55479 | 2.29030 | 762 ft | 11 kts | 213° |
| 2026-04-15 19:48 | 43.55464 | 2.29004 | 762 ft | 2 kts | 236° |
| 2026-04-15 19:49 | 43.55449 | 2.28975 | 761 ft | 7 kts | 236° |
| 2026-04-15 19:49 | 43.55446 | 2.28906 | 760 ft | 6 kts | 253° |
| 2026-04-15 19:49 | 43.55431 | 2.28903 | 760 ft | 4 kts | 111° |
| 2026-04-15 19:49 | 43.55427 | 2.28911 | 760 ft | 0 kts | 138° |